sensor_id;sensor_type;location;lat;lon;timestamp;temperature;humidity
2054;DHT22;1032;52.542;13.440;2023-07-08T00:00:19;20.90;68.80
2054;DHT22;1032;52.542;13.440;2023-07-08T00:02:47;20.80;68.80
2054;DHT22;1032;52.542;13.440;2023-07-08T00:05:16;20.80;69.10
2054;DHT22;1032;52.542;13.440;2023-07-08T00:07:44;20.80;69.50
2054;DHT22;1032;52.542;13.440;2023-07-08T00:10:15;20.70;69.00
2054;DHT22;1032;52.542;13.440;2023-07-08T00:12:43;20.80;69.00
2054;DHT22;1032;52.542;13.440;2023-07-08T00:15:10;20.70;69.20
2054;DHT22;1032;52.542;13.440;2023-07-08T00:17:39;20.70;68.40
2054;DHT22;1032;52.542;13.440;2023-07-08T00:20:17;20.70;68.70
2054;DHT22;1032;52.542;13.440;2023-07-08T00:22:44;20.70;68.40
2054;DHT22;1032;52.542;13.440;2023-07-08T00:25:12;21.00;69.30
2054;DHT22;1032;52.542;13.440;2023-07-08T00:27:39;20.70;69.20
2054;DHT22;1032;52.542;13.440;2023-07-08T00:30:22;20.70;69.70
2054;DHT22;1032;52.542;13.440;2023-07-08T00:32:51;20.60;70.00
2054;DHT22;1032;52.542;13.440;2023-07-08T00:35:25;20.60;70.10
2054;DHT22;1032;52.542;13.440;2023-07-08T00:37:53;20.60;70.30
2054;DHT22;1032;52.542;13.440;2023-07-08T00:40:27;20.50;70.30
2054;DHT22;1032;52.542;13.440;2023-07-08T00:42:54;20.50;70.40
2054;DHT22;1032;52.542;13.440;2023-07-08T00:45:37;20.50;71.30
2054;DHT22;1032;52.542;13.440;2023-07-08T00:48:13;20.70;71.00
2054;DHT22;1032;52.542;13.440;2023-07-08T00:50:41;20.40;70.60
2054;DHT22;1032;52.542;13.440;2023-07-08T00:53:25;20.40;70.60
2054;DHT22;1032;52.542;13.440;2023-07-08T00:55:55;20.40;70.90
2054;DHT22;1032;52.542;13.440;2023-07-08T00:58:23;20.40;70.70
2054;DHT22;1032;52.542;13.440;2023-07-08T01:00:52;20.20;70.50
2054;DHT22;1032;52.542;13.440;2023-07-08T01:03:21;20.40;70.40
2054;DHT22;1032;52.542;13.440;2023-07-08T01:05:48;20.40;70.60
2054;DHT22;1032;52.542;13.440;2023-07-08T01:08:16;20.30;70.50
2054;DHT22;1032;52.542;13.440;2023-07-08T01:10:50;20.30;69.80
2054;DHT22;1032;52.542;13.440;2023-07-08T01:13:21;20.00;69.20
2054;DHT22;1032;52.542;13.440;2023-07-08T01:15:48;20.30;69.40
2054;DHT22;1032;52.542;13.440;2023-07-08T01:18:17;20.30;69.30
2054;DHT22;1032;52.542;13.440;2023-07-08T01:20:48;20.30;69.20
2054;DHT22;1032;52.542;13.440;2023-07-08T01:23:19;20.30;69.10
2054;DHT22;1032;52.542;13.440;2023-07-08T01:25:45;20.30;69.10
2054;DHT22;1032;52.542;13.440;2023-07-08T01:28:13;20.30;69.00
2054;DHT22;1032;52.542;13.440;2023-07-08T01:30:41;20.30;69.00
2054;DHT22;1032;52.542;13.440;2023-07-08T01:33:16;20.30;68.90
2054;DHT22;1032;52.542;13.440;2023-07-08T01:35:45;19.90;68.60
2054;DHT22;1032;52.542;13.440;2023-07-08T01:38:14;20.20;68.90
2054;DHT22;1032;52.542;13.440;2023-07-08T01:40:50;20.20;69.10
2054;DHT22;1032;52.542;13.440;2023-07-08T01:43:17;20.20;69.10
2054;DHT22;1032;52.542;13.440;2023-07-08T01:45:43;20.10;69.00
2054;DHT22;1032;52.542;13.440;2023-07-08T01:48:14;20.20;69.00
2054;DHT22;1032;52.542;13.440;2023-07-08T01:50:44;20.20;69.10
2054;DHT22;1032;52.542;13.440;2023-07-08T01:53:14;20.50;69.50
2054;DHT22;1032;52.542;13.440;2023-07-08T01:55:43;20.10;69.10
2054;DHT22;1032;52.542;13.440;2023-07-08T02:00:43;20.10;69.30
2054;DHT22;1032;52.542;13.440;2023-07-08T02:03:09;20.10;69.40
2054;DHT22;1032;52.542;13.440;2023-07-08T02:05:36;20.00;69.30
2054;DHT22;1032;52.542;13.440;2023-07-08T02:08:03;20.00;69.50
2054;DHT22;1032;52.542;13.440;2023-07-08T02:10:30;20.00;69.60
2054;DHT22;1032;52.542;13.440;2023-07-08T02:12:59;20.00;69.70
2054;DHT22;1032;52.542;13.440;2023-07-08T02:15:26;20.00;69.70
2054;DHT22;1032;52.542;13.440;2023-07-08T02:17:54;20.00;69.80
2054;DHT22;1032;52.542;13.440;2023-07-08T02:20:21;20.00;69.90
2054;DHT22;1032;52.542;13.440;2023-07-08T02:22:48;19.90;69.80
2054;DHT22;1032;52.542;13.440;2023-07-08T02:25:15;19.50;69.30
2054;DHT22;1032;52.542;13.440;2023-07-08T02:27:42;19.90;70.20
2054;DHT22;1032;52.542;13.440;2023-07-08T02:30:09;19.90;70.50
2054;DHT22;1032;52.542;13.440;2023-07-08T02:32:37;19.90;70.30
2054;DHT22;1032;52.542;13.440;2023-07-08T02:35:08;19.80;69.50
2054;DHT22;1032;52.542;13.440;2023-07-08T02:37:35;19.90;70.30
2054;DHT22;1032;52.542;13.440;2023-07-08T02:40:02;19.80;70.20
2054;DHT22;1032;52.542;13.440;2023-07-08T02:42:29;19.80;70.20
2054;DHT22;1032;52.542;13.440;2023-07-08T02:44:56;19.80;70.50
2054;DHT22;1032;52.542;13.440;2023-07-08T02:47:22;19.90;71.20
2054;DHT22;1032;52.542;13.440;2023-07-08T02:49:49;19.70;71.40
2054;DHT22;1032;52.542;13.440;2023-07-08T02:52:18;19.50;72.40
2054;DHT22;1032;52.542;13.440;2023-07-08T02:54:45;19.70;72.10
2054;DHT22;1032;52.542;13.440;2023-07-08T02:57:12;19.70;72.30
2054;DHT22;1032;52.542;13.440;2023-07-08T02:59:38;19.70;72.50
2054;DHT22;1032;52.542;13.440;2023-07-08T03:02:05;19.60;72.80
2054;DHT22;1032;52.542;13.440;2023-07-08T03:04:32;19.50;72.90
2054;DHT22;1032;52.542;13.440;2023-07-08T03:07:00;19.60;73.30
2054;DHT22;1032;52.542;13.440;2023-07-08T03:09:28;19.70;73.70
2054;DHT22;1032;52.542;13.440;2023-07-08T03:11:55;19.60;74.10
2054;DHT22;1032;52.542;13.440;2023-07-08T03:14:21;19.40;74.10
2054;DHT22;1032;52.542;13.440;2023-07-08T03:16:48;19.40;74.40
2054;DHT22;1032;52.542;13.440;2023-07-08T03:19:15;19.40;74.80
2054;DHT22;1032;52.542;13.440;2023-07-08T03:21:43;19.30;74.90
2054;DHT22;1032;52.542;13.440;2023-07-08T03:24:10;19.10;75.20
2054;DHT22;1032;52.542;13.440;2023-07-08T03:26:40;19.20;75.70
2054;DHT22;1032;52.542;13.440;2023-07-08T03:29:13;19.20;76.20
2054;DHT22;1032;52.542;13.440;2023-07-08T03:31:41;19.20;76.40
2054;DHT22;1032;52.542;13.440;2023-07-08T03:34:10;19.10;76.60
2054;DHT22;1032;52.542;13.440;2023-07-08T03:36:40;19.10;77.50
2054;DHT22;1032;52.542;13.440;2023-07-08T03:39:15;19.10;77.50
2054;DHT22;1032;52.542;13.440;2023-07-08T03:41:44;19.10;77.80
2054;DHT22;1032;52.542;13.440;2023-07-08T03:44:10;18.70;77.70
2054;DHT22;1032;52.542;13.440;2023-07-08T03:46:38;19.10;78.40
2054;DHT22;1032;52.542;13.440;2023-07-08T03:49:05;19.10;78.70
2054;DHT22;1032;52.542;13.440;2023-07-08T03:51:34;19.10;78.80
2054;DHT22;1032;52.542;13.440;2023-07-08T03:54:01;19.10;79.50
2054;DHT22;1032;52.542;13.440;2023-07-08T03:56:32;19.30;80.00
2054;DHT22;1032;52.542;13.440;2023-07-08T03:59:01;19.20;79.80
2054;DHT22;1032;52.542;13.440;2023-07-08T04:01:29;19.50;80.40
2054;DHT22;1032;52.542;13.440;2023-07-08T04:03:57;19.20;80.30
2054;DHT22;1032;52.542;13.440;2023-07-08T04:06:24;19.30;80.40
2054;DHT22;1032;52.542;13.440;2023-07-08T04:08:51;19.60;80.50
2054;DHT22;1032;52.542;13.440;2023-07-08T04:11:21;19.50;80.10
2054;DHT22;1032;52.542;13.440;2023-07-08T04:13:49;19.60;79.80
2054;DHT22;1032;52.542;13.440;2023-07-08T04:16:20;19.70;78.90
2054;DHT22;1032;52.542;13.440;2023-07-08T04:18:48;19.80;78.30
2054;DHT22;1032;52.542;13.440;2023-07-08T04:21:19;19.70;78.20
2054;DHT22;1032;52.542;13.440;2023-07-08T04:23:45;20.00;78.10
2054;DHT22;1032;52.542;13.440;2023-07-08T04:26:12;20.20;77.30
2054;DHT22;1032;52.542;13.440;2023-07-08T04:28:39;20.30;76.90
2054;DHT22;1032;52.542;13.440;2023-07-08T04:31:05;20.40;76.60
2054;DHT22;1032;52.542;13.440;2023-07-08T04:33:33;20.50;76.00
2054;DHT22;1032;52.542;13.440;2023-07-08T04:36:00;20.60;75.70
2054;DHT22;1032;52.542;13.440;2023-07-08T04:38:27;20.70;75.20
2054;DHT22;1032;52.542;13.440;2023-07-08T04:40:54;20.70;75.10
2054;DHT22;1032;52.542;13.440;2023-07-08T04:43:22;20.80;75.10
2054;DHT22;1032;52.542;13.440;2023-07-08T04:45:55;20.90;75.00
2054;DHT22;1032;52.542;13.440;2023-07-08T04:48:22;21.00;74.80
2054;DHT22;1032;52.542;13.440;2023-07-08T04:50:52;21.20;74.80
2054;DHT22;1032;52.542;13.440;2023-07-08T04:53:19;21.30;75.90
2054;DHT22;1032;52.542;13.440;2023-07-08T04:55:50;21.40;74.80
2054;DHT22;1032;52.542;13.440;2023-07-08T04:58:17;21.50;74.40
2054;DHT22;1032;52.542;13.440;2023-07-08T05:00:44;21.70;74.40
2054;DHT22;1032;52.542;13.440;2023-07-08T05:03:11;21.80;74.20
2054;DHT22;1032;52.542;13.440;2023-07-08T05:05:37;21.90;74.10
2054;DHT22;1032;52.542;13.440;2023-07-08T05:08:06;21.90;74.20
2054;DHT22;1032;52.542;13.440;2023-07-08T05:10:33;22.00;74.20
2054;DHT22;1032;52.542;13.440;2023-07-08T05:13:00;22.10;72.80
2054;DHT22;1032;52.542;13.440;2023-07-08T05:15:27;22.20;71.70
2054;DHT22;1032;52.542;13.440;2023-07-08T05:17:53;22.30;71.10
2054;DHT22;1032;52.542;13.440;2023-07-08T05:20:20;22.40;70.60
2054;DHT22;1032;52.542;13.440;2023-07-08T05:22:48;22.50;70.00
2054;DHT22;1032;52.542;13.440;2023-07-08T05:25:17;22.60;69.80
2054;DHT22;1032;52.542;13.440;2023-07-08T05:27:44;22.70;69.60
2054;DHT22;1032;52.542;13.440;2023-07-08T05:30:15;22.80;69.70
2054;DHT22;1032;52.542;13.440;2023-07-08T05:32:42;22.90;69.80
2054;DHT22;1032;52.542;13.440;2023-07-08T05:35:09;23.00;69.80
2054;DHT22;1032;52.542;13.440;2023-07-08T05:37:36;23.10;69.30
2054;DHT22;1032;52.542;13.440;2023-07-08T05:40:03;23.30;69.00
2054;DHT22;1032;52.542;13.440;2023-07-08T05:42:31;23.40;68.50
2054;DHT22;1032;52.542;13.440;2023-07-08T05:44:58;23.50;68.30
2054;DHT22;1032;52.542;13.440;2023-07-08T05:47:25;23.60;67.50
2054;DHT22;1032;52.542;13.440;2023-07-08T05:49:52;23.40;66.60
2054;DHT22;1032;52.542;13.440;2023-07-08T05:52:19;23.70;66.50
2054;DHT22;1032;52.542;13.440;2023-07-08T05:54:45;23.80;65.80
2054;DHT22;1032;52.542;13.440;2023-07-08T05:57:12;23.90;66.00
2054;DHT22;1032;52.542;13.440;2023-07-08T05:59:40;23.90;65.90
2054;DHT22;1032;52.542;13.440;2023-07-08T06:02:10;24.10;66.20
2054;DHT22;1032;52.542;13.440;2023-07-08T06:04:36;24.10;65.70
2054;DHT22;1032;52.542;13.440;2023-07-08T06:07:03;24.20;65.30
2054;DHT22;1032;52.542;13.440;2023-07-08T06:09:30;24.30;64.80
2054;DHT22;1032;52.542;13.440;2023-07-08T06:11:56;24.40;65.00
2054;DHT22;1032;52.542;13.440;2023-07-08T06:14:23;24.50;65.20
2054;DHT22;1032;52.542;13.440;2023-07-08T06:16:51;24.60;64.80
2054;DHT22;1032;52.542;13.440;2023-07-08T06:19:18;24.80;64.60
2054;DHT22;1032;52.542;13.440;2023-07-08T06:21:44;24.80;64.40
2054;DHT22;1032;52.542;13.440;2023-07-08T06:24:11;24.80;64.00
2054;DHT22;1032;52.542;13.440;2023-07-08T06:26:38;24.80;63.70
2054;DHT22;1032;52.542;13.440;2023-07-08T06:29:05;24.90;63.50
2054;DHT22;1032;52.542;13.440;2023-07-08T06:31:31;25.10;63.10
2054;DHT22;1032;52.542;13.440;2023-07-08T06:34:00;25.10;62.80
2054;DHT22;1032;52.542;13.440;2023-07-08T06:36:26;25.20;62.60
2054;DHT22;1032;52.542;13.440;2023-07-08T06:38:53;25.20;62.50
2054;DHT22;1032;52.542;13.440;2023-07-08T06:41:20;25.20;62.50
2054;DHT22;1032;52.542;13.440;2023-07-08T06:43:46;25.30;62.70
2054;DHT22;1032;52.542;13.440;2023-07-08T06:46:17;25.40;62.90
2054;DHT22;1032;52.542;13.440;2023-07-08T06:48:44;25.40;63.20
2054;DHT22;1032;52.542;13.440;2023-07-08T06:51:12;25.40;63.00
2054;DHT22;1032;52.542;13.440;2023-07-08T06:53:38;25.50;63.00
2054;DHT22;1032;52.542;13.440;2023-07-08T06:56:16;25.50;62.50
2054;DHT22;1032;52.542;13.440;2023-07-08T06:58:46;25.50;62.00
2054;DHT22;1032;52.542;13.440;2023-07-08T07:01:13;25.50;61.70
2054;DHT22;1032;52.542;13.440;2023-07-08T07:03:44;25.50;60.80
2054;DHT22;1032;52.542;13.440;2023-07-08T07:06:24;25.50;61.10
2054;DHT22;1032;52.542;13.440;2023-07-08T07:09:02;25.50;61.40
2054;DHT22;1032;52.542;13.440;2023-07-08T07:11:29;25.50;62.00
2054;DHT22;1032;52.542;13.440;2023-07-08T07:14:02;25.50;62.30
2054;DHT22;1032;52.542;13.440;2023-07-08T07:16:32;25.50;62.70
2054;DHT22;1032;52.542;13.440;2023-07-08T07:19:02;25.50;62.40
2054;DHT22;1032;52.542;13.440;2023-07-08T07:21:30;25.50;62.40
2054;DHT22;1032;52.542;13.440;2023-07-08T07:24:00;25.50;62.90
2054;DHT22;1032;52.542;13.440;2023-07-08T07:26:27;25.50;62.60
2054;DHT22;1032;52.542;13.440;2023-07-08T07:28:56;25.60;62.00
2054;DHT22;1032;52.542;13.440;2023-07-08T07:31:27;25.60;62.10
2054;DHT22;1032;52.542;13.440;2023-07-08T07:34:01;25.70;61.90
2054;DHT22;1032;52.542;13.440;2023-07-08T07:36:33;25.70;61.30
2054;DHT22;1032;52.542;13.440;2023-07-08T07:39:22;25.70;61.40
2054;DHT22;1032;52.542;13.440;2023-07-08T07:42:01;25.80;61.80
2054;DHT22;1032;52.542;13.440;2023-07-08T07:47:58;25.80;60.60
2054;DHT22;1032;52.542;13.440;2023-07-08T07:50:32;25.80;60.90
2054;DHT22;1032;52.542;13.440;2023-07-08T07:53:02;25.80;61.50
2054;DHT22;1032;52.542;13.440;2023-07-08T07:55:44;25.80;60.80
2054;DHT22;1032;52.542;13.440;2023-07-08T07:58:17;25.90;61.00
2054;DHT22;1032;52.542;13.440;2023-07-08T08:00:45;25.90;61.30
2054;DHT22;1032;52.542;13.440;2023-07-08T08:03:11;25.90;61.10
2054;DHT22;1032;52.542;13.440;2023-07-08T08:05:38;25.70;60.80
2054;DHT22;1032;52.542;13.440;2023-07-08T08:08:06;26.00;60.20
2054;DHT22;1032;52.542;13.440;2023-07-08T08:10:33;26.00;60.00
2054;DHT22;1032;52.542;13.440;2023-07-08T08:13:00;26.00;60.20
2054;DHT22;1032;52.542;13.440;2023-07-08T08:15:27;26.00;60.40
2054;DHT22;1032;52.542;13.440;2023-07-08T08:17:54;26.10;61.30
2054;DHT22;1032;52.542;13.440;2023-07-08T08:20:22;26.10;61.80
2054;DHT22;1032;52.542;13.440;2023-07-08T08:22:49;26.10;61.80
2054;DHT22;1032;52.542;13.440;2023-07-08T08:25:20;26.10;61.30
2054;DHT22;1032;52.542;13.440;2023-07-08T08:27:47;26.20;60.90
2054;DHT22;1032;52.542;13.440;2023-07-08T08:30:14;26.20;61.30
2054;DHT22;1032;52.542;13.440;2023-07-08T08:32:40;26.20;61.90
2054;DHT22;1032;52.542;13.440;2023-07-08T08:35:08;26.20;62.00
2054;DHT22;1032;52.542;13.440;2023-07-08T08:37:34;26.20;61.10
2054;DHT22;1032;52.542;13.440;2023-07-08T08:40:01;26.30;61.40
2054;DHT22;1032;52.542;13.440;2023-07-08T08:42:33;26.30;60.80
2054;DHT22;1032;52.542;13.440;2023-07-08T08:45:02;26.30;60.60
2054;DHT22;1032;52.542;13.440;2023-07-08T08:47:35;26.30;60.50
2054;DHT22;1032;52.542;13.440;2023-07-08T08:50:09;26.40;60.10
2054;DHT22;1032;52.542;13.440;2023-07-08T08:52:39;26.30;59.70
2054;DHT22;1032;52.542;13.440;2023-07-08T08:55:11;26.30;59.70
2054;DHT22;1032;52.542;13.440;2023-07-08T08:57:43;26.30;59.40
2054;DHT22;1032;52.542;13.440;2023-07-08T09:00:18;26.40;57.60
2054;DHT22;1032;52.542;13.440;2023-07-08T09:02:53;26.50;57.50
2054;DHT22;1032;52.542;13.440;2023-07-08T09:05:23;26.50;58.30
2054;DHT22;1032;52.542;13.440;2023-07-08T09:08:00;26.50;58.80
2054;DHT22;1032;52.542;13.440;2023-07-08T09:10:35;26.50;58.30
2054;DHT22;1032;52.542;13.440;2023-07-08T09:13:12;26.60;57.90
2054;DHT22;1032;52.542;13.440;2023-07-08T09:15:42;26.60;57.30
2054;DHT22;1032;52.542;13.440;2023-07-08T09:18:17;26.60;56.60
2054;DHT22;1032;52.542;13.440;2023-07-08T09:20:45;26.70;56.10
2054;DHT22;1032;52.542;13.440;2023-07-08T09:23:18;26.70;53.80
2054;DHT22;1032;52.542;13.440;2023-07-08T09:25:51;26.70;53.60
2054;DHT22;1032;52.542;13.440;2023-07-08T09:28:20;26.80;53.10
2054;DHT22;1032;52.542;13.440;2023-07-08T09:30:47;26.80;52.80
2054;DHT22;1032;52.542;13.440;2023-07-08T09:33:14;26.80;52.20
2054;DHT22;1032;52.542;13.440;2023-07-08T09:35:43;26.90;51.70
2054;DHT22;1032;52.542;13.440;2023-07-08T09:38:15;27.00;51.00
2054;DHT22;1032;52.542;13.440;2023-07-08T09:40:46;27.00;50.50
2054;DHT22;1032;52.542;13.440;2023-07-08T09:43:22;27.10;50.10
2054;DHT22;1032;52.542;13.440;2023-07-08T09:45:50;27.10;50.00
2054;DHT22;1032;52.542;13.440;2023-07-08T09:48:18;27.10;49.30
2054;DHT22;1032;52.542;13.440;2023-07-08T09:50:47;27.10;48.60
2054;DHT22;1032;52.542;13.440;2023-07-08T09:53:14;27.20;48.20
2054;DHT22;1032;52.542;13.440;2023-07-08T09:55:41;27.10;48.40
2054;DHT22;1032;52.542;13.440;2023-07-08T09:58:13;27.20;48.00
2054;DHT22;1032;52.542;13.440;2023-07-08T10:00:42;27.20;47.50
2054;DHT22;1032;52.542;13.440;2023-07-08T10:03:15;27.20;46.70
2054;DHT22;1032;52.542;13.440;2023-07-08T10:05:46;27.30;46.30
2054;DHT22;1032;52.542;13.440;2023-07-08T10:08:15;27.30;48.20
2054;DHT22;1032;52.542;13.440;2023-07-08T10:10:43;27.30;48.50
2054;DHT22;1032;52.542;13.440;2023-07-08T10:13:17;27.30;48.60
2054;DHT22;1032;52.542;13.440;2023-07-08T10:15:48;27.20;48.20
2054;DHT22;1032;52.542;13.440;2023-07-08T10:18:19;27.40;48.20
2054;DHT22;1032;52.542;13.440;2023-07-08T10:20:57;27.40;47.60
2054;DHT22;1032;52.542;13.440;2023-07-08T10:23:42;27.50;47.40
2054;DHT22;1032;52.542;13.440;2023-07-08T10:26:13;27.50;47.00
2054;DHT22;1032;52.542;13.440;2023-07-08T10:28:48;27.50;47.40
2054;DHT22;1032;52.542;13.440;2023-07-08T10:31:27;27.50;47.40
2054;DHT22;1032;52.542;13.440;2023-07-08T10:34:10;27.50;47.10
2054;DHT22;1032;52.542;13.440;2023-07-08T10:36:47;27.50;47.00
2054;DHT22;1032;52.542;13.440;2023-07-08T10:39:38;27.50;46.50
2054;DHT22;1032;52.542;13.440;2023-07-08T10:42:15;27.50;46.10
2054;DHT22;1032;52.542;13.440;2023-07-08T10:44:51;27.50;46.30
2054;DHT22;1032;52.542;13.440;2023-07-08T10:47:40;27.30;46.10
2054;DHT22;1032;52.542;13.440;2023-07-08T10:50:26;27.60;46.10
2054;DHT22;1032;52.542;13.440;2023-07-08T10:53:02;27.60;46.10
2054;DHT22;1032;52.542;13.440;2023-07-08T10:55:36;27.60;46.30
2054;DHT22;1032;52.542;13.440;2023-07-08T10:58:29;27.60;46.60
2054;DHT22;1032;52.542;13.440;2023-07-08T11:01:08;27.60;46.80
2054;DHT22;1032;52.542;13.440;2023-07-08T11:04:10;27.60;46.30
2054;DHT22;1032;52.542;13.440;2023-07-08T11:06:51;27.70;45.50
2054;DHT22;1032;52.542;13.440;2023-07-08T11:09:25;27.70;45.70
2054;DHT22;1032;52.542;13.440;2023-07-08T11:11:56;27.60;45.70
2054;DHT22;1032;52.542;13.440;2023-07-08T11:14:29;27.60;45.60
2054;DHT22;1032;52.542;13.440;2023-07-08T11:17:06;27.70;45.90
2054;DHT22;1032;52.542;13.440;2023-07-08T11:19:40;27.80;46.10
2054;DHT22;1032;52.542;13.440;2023-07-08T11:22:11;27.80;45.90
2054;DHT22;1032;52.542;13.440;2023-07-08T11:24:43;27.80;45.50
2054;DHT22;1032;52.542;13.440;2023-07-08T11:27:15;27.90;45.60
2054;DHT22;1032;52.542;13.440;2023-07-08T11:29:46;27.90;45.50
2054;DHT22;1032;52.542;13.440;2023-07-08T11:32:17;28.00;45.80
2054;DHT22;1032;52.542;13.440;2023-07-08T11:34:49;28.00;45.40
2054;DHT22;1032;52.542;13.440;2023-07-08T11:37:17;28.00;45.90
2054;DHT22;1032;52.542;13.440;2023-07-08T11:39:47;27.60;45.60
2054;DHT22;1032;52.542;13.440;2023-07-08T11:42:21;28.00;46.10
2054;DHT22;1032;52.542;13.440;2023-07-08T11:44:52;27.90;46.30
2054;DHT22;1032;52.542;13.440;2023-07-08T11:47:24;28.10;46.70
2054;DHT22;1032;52.542;13.440;2023-07-08T11:49:54;28.20;46.20
2054;DHT22;1032;52.542;13.440;2023-07-08T11:52:22;28.20;45.80
2054;DHT22;1032;52.542;13.440;2023-07-08T11:54:56;28.20;46.00
2054;DHT22;1032;52.542;13.440;2023-07-08T11:57:29;28.10;45.60
2054;DHT22;1032;52.542;13.440;2023-07-08T12:00:22;28.20;45.90
2054;DHT22;1032;52.542;13.440;2023-07-08T12:02:52;28.50;45.30
2054;DHT22;1032;52.542;13.440;2023-07-08T12:05:31;28.30;45.30
2054;DHT22;1032;52.542;13.440;2023-07-08T12:07:58;28.30;45.10
2054;DHT22;1032;52.542;13.440;2023-07-08T12:10:28;28.30;45.00
2054;DHT22;1032;52.542;13.440;2023-07-08T12:12:55;28.30;44.70
2054;DHT22;1032;52.542;13.440;2023-07-08T12:15:23;28.30;44.60
2054;DHT22;1032;52.542;13.440;2023-07-08T12:17:51;28.30;44.70
2054;DHT22;1032;52.542;13.440;2023-07-08T12:20:22;28.40;44.70
2054;DHT22;1032;52.542;13.440;2023-07-08T12:22:51;28.40;44.80
2054;DHT22;1032;52.542;13.440;2023-07-08T12:25:19;28.50;45.20
2054;DHT22;1032;52.542;13.440;2023-07-08T12:27:47;28.50;45.00
2054;DHT22;1032;52.542;13.440;2023-07-08T12:30:15;29.00;45.30
2054;DHT22;1032;52.542;13.440;2023-07-08T12:32:43;28.40;44.70
2054;DHT22;1032;52.542;13.440;2023-07-08T12:35:23;28.40;44.50
2054;DHT22;1032;52.542;13.440;2023-07-08T12:37:56;28.40;44.80
2054;DHT22;1032;52.542;13.440;2023-07-08T12:40:25;28.40;44.80
2054;DHT22;1032;52.542;13.440;2023-07-08T12:42:52;28.20;44.70
2054;DHT22;1032;52.542;13.440;2023-07-08T12:45:21;28.50;45.00
2054;DHT22;1032;52.542;13.440;2023-07-08T12:47:48;28.50;45.10
2054;DHT22;1032;52.542;13.440;2023-07-08T12:50:15;28.50;44.70
2054;DHT22;1032;52.542;13.440;2023-07-08T12:52:43;28.50;44.40
2054;DHT22;1032;52.542;13.440;2023-07-08T12:55:12;28.60;44.30
2054;DHT22;1032;52.542;13.440;2023-07-08T12:57:42;28.60;44.20
2054;DHT22;1032;52.542;13.440;2023-07-08T13:00:13;28.60;44.60
2054;DHT22;1032;52.542;13.440;2023-07-08T13:02:44;28.60;44.30
2054;DHT22;1032;52.542;13.440;2023-07-08T13:05:12;28.50;44.30
2054;DHT22;1032;52.542;13.440;2023-07-08T13:07:41;28.60;44.20
2054;DHT22;1032;52.542;13.440;2023-07-08T13:10:17;28.60;43.90
2054;DHT22;1032;52.542;13.440;2023-07-08T13:12:45;28.40;44.00
2054;DHT22;1032;52.542;13.440;2023-07-08T13:15:18;28.60;44.30
2054;DHT22;1032;52.542;13.440;2023-07-08T13:17:46;28.60;43.90
2054;DHT22;1032;52.542;13.440;2023-07-08T13:20:14;28.60;43.60
2054;DHT22;1032;52.542;13.440;2023-07-08T13:22:41;28.60;43.60
2054;DHT22;1032;52.542;13.440;2023-07-08T13:25:16;28.70;43.50
2054;DHT22;1032;52.542;13.440;2023-07-08T13:27:54;28.50;43.50
2054;DHT22;1032;52.542;13.440;2023-07-08T13:30:25;28.70;43.90
2054;DHT22;1032;52.542;13.440;2023-07-08T13:32:52;28.70;44.10
2054;DHT22;1032;52.542;13.440;2023-07-08T13:35:24;28.80;44.10
2054;DHT22;1032;52.542;13.440;2023-07-08T13:37:52;28.60;43.60
2054;DHT22;1032;52.542;13.440;2023-07-08T13:40:20;28.80;43.50
2054;DHT22;1032;52.542;13.440;2023-07-08T13:42:51;28.70;42.70
2054;DHT22;1032;52.542;13.440;2023-07-08T13:45:24;28.80;42.70
2054;DHT22;1032;52.542;13.440;2023-07-08T13:47:58;28.90;43.40
2054;DHT22;1032;52.542;13.440;2023-07-08T13:50:27;28.80;43.40
2054;DHT22;1032;52.542;13.440;2023-07-08T13:52:56;28.90;43.10
2054;DHT22;1032;52.542;13.440;2023-07-08T13:55:24;28.90;43.00
2054;DHT22;1032;52.542;13.440;2023-07-08T13:57:57;28.90;42.90
2054;DHT22;1032;52.542;13.440;2023-07-08T14:00:24;28.90;42.80
2054;DHT22;1032;52.542;13.440;2023-07-08T14:02:51;28.90;42.80
2054;DHT22;1032;52.542;13.440;2023-07-08T14:05:18;28.80;42.70
2054;DHT22;1032;52.542;13.440;2023-07-08T14:07:47;28.90;42.70
2054;DHT22;1032;52.542;13.440;2023-07-08T14:10:15;29.00;43.00
2054;DHT22;1032;52.542;13.440;2023-07-08T14:12:43;29.00;43.00
2054;DHT22;1032;52.542;13.440;2023-07-08T14:15:10;29.00;42.80
2054;DHT22;1032;52.542;13.440;2023-07-08T14:17:37;29.00;42.90
2054;DHT22;1032;52.542;13.440;2023-07-08T14:20:09;29.00;42.70
2054;DHT22;1032;52.542;13.440;2023-07-08T14:22:37;29.10;42.60
2054;DHT22;1032;52.542;13.440;2023-07-08T14:25:07;29.00;42.60
2054;DHT22;1032;52.542;13.440;2023-07-08T14:27:34;29.10;42.80
2054;DHT22;1032;52.542;13.440;2023-07-08T14:30:02;29.10;42.90
2054;DHT22;1032;52.542;13.440;2023-07-08T14:32:30;29.20;42.60
2054;DHT22;1032;52.542;13.440;2023-07-08T14:35:01;29.10;42.40
2054;DHT22;1032;52.542;13.440;2023-07-08T14:37:28;29.10;42.50
2054;DHT22;1032;52.542;13.440;2023-07-08T14:39:55;29.10;42.30
2054;DHT22;1032;52.542;13.440;2023-07-08T14:42:22;29.80;42.20
2054;DHT22;1032;52.542;13.440;2023-07-08T14:44:50;29.20;41.60
2054;DHT22;1032;52.542;13.440;2023-07-08T14:47:19;29.20;41.50
2054;DHT22;1032;52.542;13.440;2023-07-08T14:49:46;29.20;41.40
2054;DHT22;1032;52.542;13.440;2023-07-08T14:52:13;29.20;41.50
2054;DHT22;1032;52.542;13.440;2023-07-08T14:54:40;29.20;42.00
2054;DHT22;1032;52.542;13.440;2023-07-08T14:57:07;29.00;41.80
2054;DHT22;1032;52.542;13.440;2023-07-08T14:59:35;29.20;41.70
2054;DHT22;1032;52.542;13.440;2023-07-08T15:02:15;29.10;41.50
2054;DHT22;1032;52.542;13.440;2023-07-08T15:04:44;29.10;41.40
2054;DHT22;1032;52.542;13.440;2023-07-08T15:07:12;29.10;41.30
2054;DHT22;1032;52.542;13.440;2023-07-08T15:09:38;29.20;41.70
2054;DHT22;1032;52.542;13.440;2023-07-08T15:12:09;29.10;42.00
2054;DHT22;1032;52.542;13.440;2023-07-08T15:14:36;29.20;42.40
2054;DHT22;1032;52.542;13.440;2023-07-08T15:17:09;29.10;42.10
2054;DHT22;1032;52.542;13.440;2023-07-08T15:19:38;29.20;42.00
2054;DHT22;1032;52.542;13.440;2023-07-08T15:22:07;29.00;43.00
2054;DHT22;1032;52.542;13.440;2023-07-08T15:24:33;29.30;42.30
2054;DHT22;1032;52.542;13.440;2023-07-08T15:27:02;29.20;41.90
2054;DHT22;1032;52.542;13.440;2023-07-08T15:29:28;29.20;41.90
2054;DHT22;1032;52.542;13.440;2023-07-08T15:31:55;29.20;42.10
2054;DHT22;1032;52.542;13.440;2023-07-08T15:34:22;29.00;42.20
2054;DHT22;1032;52.542;13.440;2023-07-08T15:36:49;29.20;42.40
2054;DHT22;1032;52.542;13.440;2023-07-08T15:39:17;29.20;42.00
2054;DHT22;1032;52.542;13.440;2023-07-08T15:41:44;29.20;42.10
2054;DHT22;1032;52.542;13.440;2023-07-08T15:44:12;29.20;42.20
2054;DHT22;1032;52.542;13.440;2023-07-08T15:46:41;29.20;41.90
2054;DHT22;1032;52.542;13.440;2023-07-08T15:49:13;29.30;42.40
2054;DHT22;1032;52.542;13.440;2023-07-08T15:51:40;29.30;42.40
2054;DHT22;1032;52.542;13.440;2023-07-08T15:54:07;29.20;42.40
2054;DHT22;1032;52.542;13.440;2023-07-08T15:56:35;29.20;41.80
2054;DHT22;1032;52.542;13.440;2023-07-08T15:59:02;29.30;41.90
2054;DHT22;1032;52.542;13.440;2023-07-08T16:01:28;29.20;41.90
2054;DHT22;1032;52.542;13.440;2023-07-08T16:03:55;29.20;41.90
2054;DHT22;1032;52.542;13.440;2023-07-08T16:06:22;29.20;42.10